Gazelle, California
Current Conditions -  °F | °C
As of 7:56 PM on Thursday 18 Dec 2014 (Local Time) from KMHS Reporting Station
Light Rain Light Rain  
Wind Chill: 41°   Ceiling: 1800
Heat Index: 41°   Visibility: 3mi
Dew Point: 39°   Wind: 0mph
Humidity: 93%   Direction: NA
Pressure: 30.07"   Gusts: NA
Location:  41.52°N, 122.52°W
Report Text: KMHS 190356Z AUTO 00000KT 3SM -RA BR FEW003 OVC018 05/04 A3007 RMK AO2 SLP208 P0003 T00500039
Loading
Personal Weather Stations






























Interactive Weather Map New forecast layout! Learn more

10-Day Weather Forecast

Advertisements
Track Severe Weather on mobile